sensor_id;sensor_type;location;lat;lon;timestamp;P1;durP1;ratioP1;P2;durP2;ratioP2
32734;SDS011;19112;51.076;3.706;2022-10-31T00:02:23;17.70;;;6.40;;
32734;SDS011;19112;51.076;3.706;2022-10-31T00:04:49;17.85;;;5.95;;
32734;SDS011;19112;51.076;3.706;2022-10-31T00:07:15;16.88;;;5.60;;
32734;SDS011;19112;51.076;3.706;2022-10-31T00:09:41;13.57;;;5.55;;
32734;SDS011;19112;51.076;3.706;2022-10-31T00:12:06;17.15;;;5.97;;
32734;SDS011;19112;51.076;3.706;2022-10-31T00:14:32;17.85;;;5.45;;
32734;SDS011;19112;51.076;3.706;2022-10-31T00:16:58;19.17;;;5.95;;
32734;SDS011;19112;51.076;3.706;2022-10-31T00:19:24;16.63;;;5.95;;
32734;SDS011;19112;51.076;3.706;2022-10-31T00:21:51;14.65;;;5.55;;
32734;SDS011;19112;51.076;3.706;2022-10-31T00:24:17;22.30;;;6.18;;
32734;SDS011;19112;51.076;3.706;2022-10-31T00:26:42;16.33;;;5.70;;
32734;SDS011;19112;51.076;3.706;2022-10-31T00:29:08;17.45;;;6.07;;
32734;SDS011;19112;51.076;3.706;2022-10-31T00:31:35;15.73;;;5.40;;
32734;SDS011;19112;51.076;3.706;2022-10-31T00:34:00;20.10;;;6.05;;
32734;SDS011;19112;51.076;3.706;2022-10-31T00:36:27;15.77;;;6.00;;
32734;SDS011;19112;51.076;3.706;2022-10-31T00:38:53;19.02;;;6.15;;
32734;SDS011;19112;51.076;3.706;2022-10-31T00:41:19;17.92;;;5.60;;
32734;SDS011;19112;51.076;3.706;2022-10-31T00:43:45;17.05;;;6.95;;
32734;SDS011;19112;51.076;3.706;2022-10-31T00:46:12;17.50;;;6.20;;
32734;SDS011;19112;51.076;3.706;2022-10-31T00:48:38;16.20;;;6.15;;
32734;SDS011;19112;51.076;3.706;2022-10-31T00:51:04;18.73;;;6.15;;
32734;SDS011;19112;51.076;3.706;2022-10-31T00:53:30;17.13;;;6.05;;
32734;SDS011;19112;51.076;3.706;2022-10-31T00:55:56;17.95;;;6.38;;
32734;SDS011;19112;51.076;3.706;2022-10-31T00:58:22;17.23;;;5.97;;
32734;SDS011;19112;51.076;3.706;2022-10-31T01:00:48;17.75;;;6.30;;
32734;SDS011;19112;51.076;3.706;2022-10-31T01:03:19;19.00;;;7.15;;
32734;SDS011;19112;51.076;3.706;2022-10-31T01:05:57;15.70;;;5.88;;
32734;SDS011;19112;51.076;3.706;2022-10-31T01:08:28;16.60;;;6.05;;
32734;SDS011;19112;51.076;3.706;2022-10-31T01:11:05;16.92;;;6.22;;
32734;SDS011;19112;51.076;3.706;2022-10-31T01:13:40;18.20;;;7.13;;
32734;SDS011;19112;51.076;3.706;2022-10-31T01:16:07;21.75;;;6.63;;
32734;SDS011;19112;51.076;3.706;2022-10-31T01:18:38;17.40;;;6.15;;
32734;SDS011;19112;51.076;3.706;2022-10-31T01:21:15;19.60;;;6.35;;
32734;SDS011;19112;51.076;3.706;2022-10-31T01:23:44;17.45;;;6.43;;
32734;SDS011;19112;51.076;3.706;2022-10-31T01:26:14;16.63;;;6.50;;
32734;SDS011;19112;51.076;3.706;2022-10-31T01:28:48;17.27;;;6.47;;
32734;SDS011;19112;51.076;3.706;2022-10-31T01:31:22;15.68;;;5.88;;
32734;SDS011;19112;51.076;3.706;2022-10-31T01:33:51;17.52;;;7.10;;
32734;SDS011;19112;51.076;3.706;2022-10-31T01:38:53;21.67;;;5.70;;
32734;SDS011;19112;51.076;3.706;2022-10-31T01:41:25;17.27;;;6.75;;
32734;SDS011;19112;51.076;3.706;2022-10-31T01:43:58;16.20;;;6.10;;
32734;SDS011;19112;51.076;3.706;2022-10-31T01:46:31;18.20;;;6.25;;
32734;SDS011;19112;51.076;3.706;2022-10-31T01:49:05;16.95;;;5.80;;
32734;SDS011;19112;51.076;3.706;2022-10-31T01:51:38;17.98;;;6.40;;
32734;SDS011;19112;51.076;3.706;2022-10-31T01:54:15;16.42;;;6.93;;
32734;SDS011;19112;51.076;3.706;2022-10-31T01:56:47;19.15;;;6.50;;
32734;SDS011;19112;51.076;3.706;2022-10-31T01:59:18;18.65;;;6.55;;
32734;SDS011;19112;51.076;3.706;2022-10-31T02:01:47;19.00;;;6.78;;
32734;SDS011;19112;51.076;3.706;2022-10-31T02:04:15;18.70;;;7.20;;
32734;SDS011;19112;51.076;3.706;2022-10-31T02:06:46;23.58;;;6.85;;
32734;SDS011;19112;51.076;3.706;2022-10-31T02:09:18;24.42;;;7.25;;
32734;SDS011;19112;51.076;3.706;2022-10-31T02:11:49;20.88;;;7.53;;
32734;SDS011;19112;51.076;3.706;2022-10-31T02:14:17;20.77;;;6.88;;
32734;SDS011;19112;51.076;3.706;2022-10-31T02:16:45;16.15;;;6.63;;
32734;SDS011;19112;51.076;3.706;2022-10-31T02:19:12;16.55;;;6.97;;
32734;SDS011;19112;51.076;3.706;2022-10-31T02:21:53;20.52;;;7.25;;
32734;SDS011;19112;51.076;3.706;2022-10-31T02:25:06;22.90;;;8.70;;
32734;SDS011;19112;51.076;3.706;2022-10-31T02:36:41;22.73;;;8.00;;
32734;SDS011;19112;51.076;3.706;2022-10-31T02:39:35;21.75;;;7.53;;
32734;SDS011;19112;51.076;3.706;2022-10-31T02:48:26;20.70;;;7.32;;
32734;SDS011;19112;51.076;3.706;2022-10-31T02:50:56;21.93;;;7.80;;
32734;SDS011;19112;51.076;3.706;2022-10-31T02:53:25;22.17;;;7.78;;
32734;SDS011;19112;51.076;3.706;2022-10-31T02:55:56;22.70;;;8.20;;
32734;SDS011;19112;51.076;3.706;2022-10-31T02:58:44;18.13;;;7.07;;
32734;SDS011;19112;51.076;3.706;2022-10-31T03:12:30;18.65;;;7.13;;
32734;SDS011;19112;51.076;3.706;2022-10-31T03:20:30;23.23;;;7.97;;
32734;SDS011;19112;51.076;3.706;2022-10-31T03:23:05;19.40;;;7.15;;
32734;SDS011;19112;51.076;3.706;2022-10-31T03:25:37;22.10;;;7.68;;
32734;SDS011;19112;51.076;3.706;2022-10-31T03:28:04;21.52;;;8.23;;
32734;SDS011;19112;51.076;3.706;2022-10-31T03:30:33;21.98;;;8.02;;
32734;SDS011;19112;51.076;3.706;2022-10-31T03:33:03;24.10;;;8.05;;
32734;SDS011;19112;51.076;3.706;2022-10-31T03:35:34;27.20;;;9.45;;
32734;SDS011;19112;51.076;3.706;2022-10-31T03:38:01;23.83;;;9.75;;
32734;SDS011;19112;51.076;3.706;2022-10-31T03:40:30;23.73;;;9.00;;
32734;SDS011;19112;51.076;3.706;2022-10-31T03:43:00;22.77;;;8.93;;
32734;SDS011;19112;51.076;3.706;2022-10-31T03:45:35;20.77;;;8.38;;
32734;SDS011;19112;51.076;3.706;2022-10-31T03:48:10;23.35;;;9.13;;
32734;SDS011;19112;51.076;3.706;2022-10-31T03:50:43;25.95;;;8.23;;
32734;SDS011;19112;51.076;3.706;2022-10-31T03:54:02;22.80;;;9.35;;
32734;SDS011;19112;51.076;3.706;2022-10-31T03:56:40;21.13;;;8.40;;
32734;SDS011;19112;51.076;3.706;2022-10-31T04:02:05;20.10;;;8.45;;
32734;SDS011;19112;51.076;3.706;2022-10-31T04:04:40;19.40;;;7.78;;
32734;SDS011;19112;51.076;3.706;2022-10-31T04:07:07;24.25;;;8.23;;
32734;SDS011;19112;51.076;3.706;2022-10-31T04:09:35;19.00;;;7.93;;
32734;SDS011;19112;51.076;3.706;2022-10-31T04:12:05;20.52;;;7.55;;
32734;SDS011;19112;51.076;3.706;2022-10-31T04:14:34;21.88;;;7.65;;
32734;SDS011;19112;51.076;3.706;2022-10-31T04:17:05;24.77;;;8.32;;
32734;SDS011;19112;51.076;3.706;2022-10-31T04:19:35;19.88;;;8.30;;
32734;SDS011;19112;51.076;3.706;2022-10-31T04:22:01;21.60;;;8.25;;
32734;SDS011;19112;51.076;3.706;2022-10-31T04:24:27;17.73;;;7.03;;
32734;SDS011;19112;51.076;3.706;2022-10-31T04:26:52;25.70;;;8.32;;
32734;SDS011;19112;51.076;3.706;2022-10-31T04:29:18;18.58;;;7.70;;
32734;SDS011;19112;51.076;3.706;2022-10-31T04:31:44;20.27;;;7.85;;
32734;SDS011;19112;51.076;3.706;2022-10-31T04:34:09;21.35;;;7.85;;
32734;SDS011;19112;51.076;3.706;2022-10-31T04:36:35;19.63;;;7.72;;
32734;SDS011;19112;51.076;3.706;2022-10-31T04:39:01;20.48;;;7.07;;
32734;SDS011;19112;51.076;3.706;2022-10-31T04:41:27;20.42;;;8.20;;
32734;SDS011;19112;51.076;3.706;2022-10-31T04:43:53;20.27;;;7.85;;
32734;SDS011;19112;51.076;3.706;2022-10-31T04:46:19;19.27;;;7.47;;
32734;SDS011;19112;51.076;3.706;2022-10-31T04:48:44;19.33;;;7.93;;
32734;SDS011;19112;51.076;3.706;2022-10-31T04:51:10;21.77;;;8.40;;
32734;SDS011;19112;51.076;3.706;2022-10-31T04:53:36;24.13;;;8.30;;
32734;SDS011;19112;51.076;3.706;2022-10-31T04:56:02;18.73;;;7.93;;
32734;SDS011;19112;51.076;3.706;2022-10-31T04:58:28;19.80;;;7.70;;
32734;SDS011;19112;51.076;3.706;2022-10-31T05:00:54;25.13;;;9.15;;
32734;SDS011;19112;51.076;3.706;2022-10-31T05:03:21;18.13;;;7.63;;
32734;SDS011;19112;51.076;3.706;2022-10-31T05:05:47;24.73;;;9.00;;
32734;SDS011;19112;51.076;3.706;2022-10-31T05:08:13;19.92;;;8.35;;
32734;SDS011;19112;51.076;3.706;2022-10-31T05:10:40;22.33;;;8.05;;
32734;SDS011;19112;51.076;3.706;2022-10-31T05:13:05;20.10;;;8.40;;
32734;SDS011;19112;51.076;3.706;2022-10-31T05:15:31;26.63;;;9.15;;
32734;SDS011;19112;51.076;3.706;2022-10-31T05:17:58;18.73;;;7.25;;
32734;SDS011;19112;51.076;3.706;2022-10-31T05:20:25;21.48;;;8.73;;
32734;SDS011;19112;51.076;3.706;2022-10-31T05:22:53;22.15;;;9.55;;
32734;SDS011;19112;51.076;3.706;2022-10-31T05:25:21;25.50;;;8.18;;
32734;SDS011;19112;51.076;3.706;2022-10-31T05:27:50;22.15;;;9.15;;
32734;SDS011;19112;51.076;3.706;2022-10-31T05:30:18;22.98;;;8.93;;
32734;SDS011;19112;51.076;3.706;2022-10-31T05:32:48;22.70;;;7.95;;
32734;SDS011;19112;51.076;3.706;2022-10-31T05:35:17;23.60;;;9.00;;
32734;SDS011;19112;51.076;3.706;2022-10-31T05:37:56;20.33;;;8.45;;
32734;SDS011;19112;51.076;3.706;2022-10-31T05:40:23;24.23;;;9.15;;
32734;SDS011;19112;51.076;3.706;2022-10-31T05:42:50;24.77;;;9.48;;
32734;SDS011;19112;51.076;3.706;2022-10-31T05:45:17;19.00;;;7.80;;
32734;SDS011;19112;51.076;3.706;2022-10-31T05:47:51;22.58;;;8.48;;
32734;SDS011;19112;51.076;3.706;2022-10-31T05:50:18;21.65;;;9.05;;
32734;SDS011;19112;51.076;3.706;2022-10-31T05:52:44;19.95;;;8.00;;
32734;SDS011;19112;51.076;3.706;2022-10-31T05:55:10;22.30;;;8.85;;
32734;SDS011;19112;51.076;3.706;2022-10-31T05:57:36;28.02;;;9.80;;
32734;SDS011;19112;51.076;3.706;2022-10-31T06:00:03;22.58;;;10.23;;
32734;SDS011;19112;51.076;3.706;2022-10-31T06:02:30;23.17;;;9.00;;
32734;SDS011;19112;51.076;3.706;2022-10-31T06:04:59;22.05;;;9.45;;
32734;SDS011;19112;51.076;3.706;2022-10-31T06:07:26;23.23;;;9.48;;
32734;SDS011;19112;51.076;3.706;2022-10-31T06:09:52;21.60;;;9.05;;
32734;SDS011;19112;51.076;3.706;2022-10-31T06:12:18;26.58;;;9.30;;
32734;SDS011;19112;51.076;3.706;2022-10-31T06:14:43;22.45;;;9.00;;
32734;SDS011;19112;51.076;3.706;2022-10-31T06:17:09;22.08;;;9.63;;
32734;SDS011;19112;51.076;3.706;2022-10-31T06:19:35;24.40;;;10.10;;
32734;SDS011;19112;51.076;3.706;2022-10-31T06:22:00;24.92;;;10.35;;
32734;SDS011;19112;51.076;3.706;2022-10-31T06:24:27;26.83;;;11.48;;
32734;SDS011;19112;51.076;3.706;2022-10-31T06:26:53;28.27;;;11.23;;
32734;SDS011;19112;51.076;3.706;2022-10-31T06:29:18;28.40;;;11.75;;
32734;SDS011;19112;51.076;3.706;2022-10-31T06:31:44;25.85;;;12.40;;
32734;SDS011;19112;51.076;3.706;2022-10-31T06:34:10;30.00;;;11.80;;
32734;SDS011;19112;51.076;3.706;2022-10-31T06:36:36;35.88;;;12.85;;
32734;SDS011;19112;51.076;3.706;2022-10-31T06:39:01;26.67;;;11.77;;
32734;SDS011;19112;51.076;3.706;2022-10-31T06:41:27;27.40;;;11.73;;
32734;SDS011;19112;51.076;3.706;2022-10-31T06:43:53;32.90;;;12.15;;
32734;SDS011;19112;51.076;3.706;2022-10-31T06:46:18;27.38;;;11.43;;
32734;SDS011;19112;51.076;3.706;2022-10-31T06:48:44;25.20;;;11.10;;
32734;SDS011;19112;51.076;3.706;2022-10-31T06:51:10;28.48;;;11.32;;
32734;SDS011;19112;51.076;3.706;2022-10-31T06:53:36;23.33;;;10.27;;
32734;SDS011;19112;51.076;3.706;2022-10-31T06:56:01;28.42;;;10.73;;
32734;SDS011;19112;51.076;3.706;2022-10-31T06:58:27;26.38;;;11.10;;
32734;SDS011;19112;51.076;3.706;2022-10-31T07:00:53;27.83;;;11.20;;
32734;SDS011;19112;51.076;3.706;2022-10-31T07:03:19;27.27;;;11.38;;
32734;SDS011;19112;51.076;3.706;2022-10-31T07:05:45;28.77;;;11.32;;
32734;SDS011;19112;51.076;3.706;2022-10-31T07:08:11;27.80;;;11.25;;
32734;SDS011;19112;51.076;3.706;2022-10-31T07:10:39;27.33;;;10.95;;
32734;SDS011;19112;51.076;3.706;2022-10-31T07:13:11;26.10;;;11.55;;
32734;SDS011;19112;51.076;3.706;2022-10-31T07:15:39;25.30;;;10.85;;
32734;SDS011;19112;51.076;3.706;2022-10-31T07:18:07;28.20;;;11.63;;
32734;SDS011;19112;51.076;3.706;2022-10-31T07:20:36;26.35;;;11.15;;
32734;SDS011;19112;51.076;3.706;2022-10-31T07:23:02;26.08;;;11.23;;
32734;SDS011;19112;51.076;3.706;2022-10-31T07:25:28;27.35;;;12.07;;
32734;SDS011;19112;51.076;3.706;2022-10-31T07:27:54;26.27;;;11.70;;
32734;SDS011;19112;51.076;3.706;2022-10-31T07:30:20;26.58;;;11.95;;
32734;SDS011;19112;51.076;3.706;2022-10-31T07:32:47;25.25;;;10.98;;
32734;SDS011;19112;51.076;3.706;2022-10-31T07:35:18;29.77;;;11.52;;
32734;SDS011;19112;51.076;3.706;2022-10-31T07:37:47;30.10;;;11.55;;
32734;SDS011;19112;51.076;3.706;2022-10-31T07:40:13;26.83;;;11.93;;
32734;SDS011;19112;51.076;3.706;2022-10-31T07:42:41;26.35;;;11.82;;
32734;SDS011;19112;51.076;3.706;2022-10-31T07:45:09;27.27;;;12.15;;
32734;SDS011;19112;51.076;3.706;2022-10-31T07:47:39;29.70;;;12.38;;
32734;SDS011;19112;51.076;3.706;2022-10-31T07:50:08;28.70;;;12.60;;
32734;SDS011;19112;51.076;3.706;2022-10-31T07:52:39;26.27;;;12.65;;
32734;SDS011;19112;51.076;3.706;2022-10-31T07:55:05;29.70;;;13.27;;
32734;SDS011;19112;51.076;3.706;2022-10-31T07:57:31;28.70;;;12.70;;
32734;SDS011;19112;51.076;3.706;2022-10-31T07:59:57;27.83;;;13.60;;
32734;SDS011;19112;51.076;3.706;2022-10-31T08:02:23;32.13;;;14.63;;
32734;SDS011;19112;51.076;3.706;2022-10-31T08:04:50;36.70;;;14.10;;
32734;SDS011;19112;51.076;3.706;2022-10-31T08:07:16;29.38;;;13.82;;
32734;SDS011;19112;51.076;3.706;2022-10-31T08:09:43;34.45;;;14.60;;
32734;SDS011;19112;51.076;3.706;2022-10-31T08:12:08;30.45;;;12.60;;
32734;SDS011;19112;51.076;3.706;2022-10-31T08:14:34;28.98;;;13.43;;
32734;SDS011;19112;51.076;3.706;2022-10-31T08:17:00;30.05;;;14.20;;
32734;SDS011;19112;51.076;3.706;2022-10-31T08:19:26;28.80;;;14.00;;
32734;SDS011;19112;51.076;3.706;2022-10-31T08:21:52;28.95;;;14.45;;
32734;SDS011;19112;51.076;3.706;2022-10-31T08:24:21;30.45;;;14.32;;
32734;SDS011;19112;51.076;3.706;2022-10-31T08:26:47;33.78;;;15.38;;
32734;SDS011;19112;51.076;3.706;2022-10-31T08:29:13;28.80;;;15.18;;
32734;SDS011;19112;51.076;3.706;2022-10-31T08:31:39;34.30;;;14.88;;
32734;SDS011;19112;51.076;3.706;2022-10-31T08:34:06;30.95;;;13.38;;
32734;SDS011;19112;51.076;3.706;2022-10-31T08:36:32;32.50;;;14.32;;
32734;SDS011;19112;51.076;3.706;2022-10-31T08:38:58;29.58;;;14.45;;
32734;SDS011;19112;51.076;3.706;2022-10-31T08:41:25;31.40;;;14.60;;
32734;SDS011;19112;51.076;3.706;2022-10-31T08:43:50;32.47;;;15.35;;
32734;SDS011;19112;51.076;3.706;2022-10-31T08:46:16;29.10;;;15.10;;
32734;SDS011;19112;51.076;3.706;2022-10-31T08:48:43;35.78;;;15.35;;
32734;SDS011;19112;51.076;3.706;2022-10-31T08:51:09;27.92;;;13.57;;
32734;SDS011;19112;51.076;3.706;2022-10-31T08:53:35;30.42;;;13.65;;
32734;SDS011;19112;51.076;3.706;2022-10-31T08:56:01;31.40;;;14.80;;
32734;SDS011;19112;51.076;3.706;2022-10-31T08:58:27;33.40;;;14.82;;
32734;SDS011;19112;51.076;3.706;2022-10-31T09:00:53;29.45;;;15.35;;
32734;SDS011;19112;51.076;3.706;2022-10-31T09:03:25;30.33;;;13.57;;
32734;SDS011;19112;51.076;3.706;2022-10-31T09:05:59;27.58;;;13.68;;
32734;SDS011;19112;51.076;3.706;2022-10-31T09:08:31;31.08;;;13.68;;
32734;SDS011;19112;51.076;3.706;2022-10-31T09:10:57;30.48;;;13.93;;
32734;SDS011;19112;51.076;3.706;2022-10-31T09:13:24;26.85;;;13.70;;
32734;SDS011;19112;51.076;3.706;2022-10-31T09:15:50;33.95;;;14.38;;
32734;SDS011;19112;51.076;3.706;2022-10-31T09:18:17;29.83;;;13.40;;
32734;SDS011;19112;51.076;3.706;2022-10-31T09:20:46;29.95;;;13.70;;
32734;SDS011;19112;51.076;3.706;2022-10-31T09:23:14;28.25;;;12.73;;
32734;SDS011;19112;51.076;3.706;2022-10-31T09:25:43;29.23;;;12.65;;
32734;SDS011;19112;51.076;3.706;2022-10-31T09:28:10;29.33;;;13.40;;
32734;SDS011;19112;51.076;3.706;2022-10-31T09:30:39;27.88;;;12.98;;
32734;SDS011;19112;51.076;3.706;2022-10-31T09:33:06;27.70;;;12.30;;
32734;SDS011;19112;51.076;3.706;2022-10-31T09:35:36;27.60;;;13.35;;
32734;SDS011;19112;51.076;3.706;2022-10-31T09:38:04;30.23;;;13.55;;
32734;SDS011;19112;51.076;3.706;2022-10-31T09:48:34;25.95;;;12.30;;
32734;SDS011;19112;51.076;3.706;2022-10-31T09:51:40;28.23;;;12.50;;
32734;SDS011;19112;51.076;3.706;2022-10-31T09:54:18;27.48;;;13.82;;
32734;SDS011;19112;51.076;3.706;2022-10-31T09:57:03;27.90;;;12.43;;
32734;SDS011;19112;51.076;3.706;2022-10-31T09:59:34;26.92;;;12.20;;
32734;SDS011;19112;51.076;3.706;2022-10-31T10:02:16;28.58;;;12.55;;
32734;SDS011;19112;51.076;3.706;2022-10-31T10:08:23;38.30;;;18.17;;
32734;SDS011;19112;51.076;3.706;2022-10-31T10:10:53;29.30;;;13.48;;
32734;SDS011;19112;51.076;3.706;2022-10-31T10:13:32;29.20;;;14.10;;
32734;SDS011;19112;51.076;3.706;2022-10-31T10:16:55;26.50;;;12.80;;
32734;SDS011;19112;51.076;3.706;2022-10-31T10:19:44;28.80;;;13.52;;
32734;SDS011;19112;51.076;3.706;2022-10-31T10:25:33;32.65;;;12.65;;
32734;SDS011;19112;51.076;3.706;2022-10-31T10:30:47;25.58;;;12.23;;
32734;SDS011;19112;51.076;3.706;2022-10-31T10:33:23;27.60;;;12.38;;
32734;SDS011;19112;51.076;3.706;2022-10-31T10:36:14;29.65;;;13.35;;
32734;SDS011;19112;51.076;3.706;2022-10-31T10:38:51;30.05;;;13.23;;
32734;SDS011;19112;51.076;3.706;2022-10-31T10:41:29;26.63;;;12.55;;
32734;SDS011;19112;51.076;3.706;2022-10-31T10:43:57;27.35;;;11.35;;
32734;SDS011;19112;51.076;3.706;2022-10-31T10:49:42;25.33;;;10.68;;
32734;SDS011;19112;51.076;3.706;2022-10-31T10:53:06;24.92;;;10.75;;
32734;SDS011;19112;51.076;3.706;2022-10-31T10:58:02;25.35;;;10.63;;
32734;SDS011;19112;51.076;3.706;2022-10-31T11:00:43;24.73;;;10.30;;
32734;SDS011;19112;51.076;3.706;2022-10-31T11:03:14;28.25;;;11.50;;
32734;SDS011;19112;51.076;3.706;2022-10-31T11:08:26;23.15;;;9.95;;
32734;SDS011;19112;51.076;3.706;2022-10-31T11:13:44;39.00;;;28.33;;
32734;SDS011;19112;51.076;3.706;2022-10-31T11:18:51;26.15;;;10.10;;
32734;SDS011;19112;51.076;3.706;2022-10-31T11:21:21;26.95;;;10.75;;
32734;SDS011;19112;51.076;3.706;2022-10-31T11:24:03;25.35;;;10.80;;
32734;SDS011;19112;51.076;3.706;2022-10-31T11:26:38;24.17;;;10.55;;
32734;SDS011;19112;51.076;3.706;2022-10-31T11:29:23;33.40;;;16.33;;
32734;SDS011;19112;51.076;3.706;2022-10-31T11:31:51;34.50;;;14.65;;
32734;SDS011;19112;51.076;3.706;2022-10-31T11:34:38;52.97;;;24.57;;
32734;SDS011;19112;51.076;3.706;2022-10-31T11:37:15;64.13;;;38.08;;
32734;SDS011;19112;51.076;3.706;2022-10-31T11:39:54;28.70;;;14.45;;
32734;SDS011;19112;51.076;3.706;2022-10-31T11:42:24;28.73;;;13.73;;
32734;SDS011;19112;51.076;3.706;2022-10-31T11:45:12;35.47;;;16.38;;
32734;SDS011;19112;51.076;3.706;2022-10-31T11:47:52;32.25;;;14.82;;
32734;SDS011;19112;51.076;3.706;2022-10-31T11:50:32;27.15;;;12.93;;
32734;SDS011;19112;51.076;3.706;2022-10-31T11:53:03;27.52;;;12.02;;
32734;SDS011;19112;51.076;3.706;2022-10-31T11:55:38;26.70;;;12.95;;
32734;SDS011;19112;51.076;3.706;2022-10-31T11:58:05;24.25;;;11.77;;
32734;SDS011;19112;51.076;3.706;2022-10-31T12:00:51;27.73;;;14.55;;
32734;SDS011;19112;51.076;3.706;2022-10-31T12:05:58;27.50;;;12.57;;
32734;SDS011;19112;51.076;3.706;2022-10-31T12:08:27;27.52;;;12.07;;
32734;SDS011;19112;51.076;3.706;2022-10-31T12:11:18;32.80;;;18.60;;
32734;SDS011;19112;51.076;3.706;2022-10-31T12:17:16;24.45;;;11.15;;
32734;SDS011;19112;51.076;3.706;2022-10-31T12:23:33;26.13;;;13.50;;
32734;SDS011;19112;51.076;3.706;2022-10-31T12:26:23;25.85;;;11.95;;
32734;SDS011;19112;51.076;3.706;2022-10-31T12:29:27;26.85;;;12.02;;
32734;SDS011;19112;51.076;3.706;2022-10-31T12:36:10;27.33;;;11.90;;
32734;SDS011;19112;51.076;3.706;2022-10-31T12:59:04;29.20;;;12.57;;
32734;SDS011;19112;51.076;3.706;2022-10-31T13:10:43;28.60;;;12.68;;
32734;SDS011;19112;51.076;3.706;2022-10-31T13:13:26;26.38;;;11.93;;
32734;SDS011;19112;51.076;3.706;2022-10-31T13:18:58;28.30;;;12.13;;
32734;SDS011;19112;51.076;3.706;2022-10-31T13:21:39;27.42;;;11.95;;
32734;SDS011;19112;51.076;3.706;2022-10-31T13:24:12;25.52;;;12.70;;
32734;SDS011;19112;51.076;3.706;2022-10-31T13:26:54;27.80;;;12.20;;
32734;SDS011;19112;51.076;3.706;2022-10-31T13:32:06;32.75;;;12.82;;
32734;SDS011;19112;51.076;3.706;2022-10-31T13:34:39;26.83;;;12.00;;
32734;SDS011;19112;51.076;3.706;2022-10-31T13:37:14;28.45;;;12.25;;
32734;SDS011;19112;51.076;3.706;2022-10-31T13:45:20;26.58;;;12.50;;
32734;SDS011;19112;51.076;3.706;2022-10-31T13:50:41;31.90;;;14.38;;
32734;SDS011;19112;51.076;3.706;2022-10-31T13:53:20;41.40;;;22.42;;
32734;SDS011;19112;51.076;3.706;2022-10-31T13:58:32;40.95;;;14.77;;
32734;SDS011;19112;51.076;3.706;2022-10-31T14:03:47;31.25;;;13.45;;
32734;SDS011;19112;51.076;3.706;2022-10-31T14:18:05;30.83;;;14.25;;
32734;SDS011;19112;51.076;3.706;2022-10-31T14:20:44;29.63;;;14.48;;
32734;SDS011;19112;51.076;3.706;2022-10-31T14:28:45;32.60;;;15.57;;
32734;SDS011;19112;51.076;3.706;2022-10-31T14:34:06;33.47;;;13.65;;
32734;SDS011;19112;51.076;3.706;2022-10-31T14:45:13;29.13;;;14.48;;
32734;SDS011;19112;51.076;3.706;2022-10-31T14:50:59;31.38;;;14.18;;
32734;SDS011;19112;51.076;3.706;2022-10-31T14:56:28;33.72;;;14.73;;
32734;SDS011;19112;51.076;3.706;2022-10-31T14:58:59;28.67;;;14.70;;
32734;SDS011;19112;51.076;3.706;2022-10-31T15:01:39;30.25;;;14.85;;
32734;SDS011;19112;51.076;3.706;2022-10-31T15:04:15;33.58;;;15.80;;
32734;SDS011;19112;51.076;3.706;2022-10-31T15:06:43;32.55;;;15.18;;
32734;SDS011;19112;51.076;3.706;2022-10-31T15:12:16;37.30;;;15.23;;
32734;SDS011;19112;51.076;3.706;2022-10-31T15:14:55;38.95;;;16.80;;
32734;SDS011;19112;51.076;3.706;2022-10-31T15:17:22;35.97;;;16.10;;
32734;SDS011;19112;51.076;3.706;2022-10-31T15:19:50;35.17;;;16.02;;
32734;SDS011;19112;51.076;3.706;2022-10-31T15:22:18;33.35;;;15.50;;
32734;SDS011;19112;51.076;3.706;2022-10-31T15:24:48;34.70;;;15.07;;
32734;SDS011;19112;51.076;3.706;2022-10-31T15:27:20;49.85;;;20.13;;
32734;SDS011;19112;51.076;3.706;2022-10-31T15:29:52;39.42;;;18.33;;
32734;SDS011;19112;51.076;3.706;2022-10-31T15:34:52;36.45;;;15.80;;
32734;SDS011;19112;51.076;3.706;2022-10-31T15:37:20;37.05;;;15.75;;
32734;SDS011;19112;51.076;3.706;2022-10-31T15:39:49;34.97;;;15.10;;
32734;SDS011;19112;51.076;3.706;2022-10-31T15:42:22;32.65;;;15.25;;
32734;SDS011;19112;51.076;3.706;2022-10-31T15:45:00;33.83;;;15.52;;
32734;SDS011;19112;51.076;3.706;2022-10-31T15:48:01;32.35;;;14.68;;
32734;SDS011;19112;51.076;3.706;2022-10-31T15:50:45;36.80;;;15.52;;
32734;SDS011;19112;51.076;3.706;2022-10-31T15:56:24;36.72;;;15.10;;
32734;SDS011;19112;51.076;3.706;2022-10-31T15:58:56;34.30;;;15.07;;
32734;SDS011;19112;51.076;3.706;2022-10-31T16:01:26;31.88;;;14.98;;
32734;SDS011;19112;51.076;3.706;2022-10-31T16:04:02;39.88;;;15.52;;
32734;SDS011;19112;51.076;3.706;2022-10-31T16:06:37;31.95;;;14.77;;
32734;SDS011;19112;51.076;3.706;2022-10-31T16:09:04;41.92;;;18.77;;
32734;SDS011;19112;51.076;3.706;2022-10-31T16:11:47;65.30;;;39.90;;
32734;SDS011;19112;51.076;3.706;2022-10-31T16:14:20;46.95;;;26.75;;
32734;SDS011;19112;51.076;3.706;2022-10-31T16:16:51;36.70;;;19.75;;
32734;SDS011;19112;51.076;3.706;2022-10-31T16:22:02;52.05;;;36.95;;
32734;SDS011;19112;51.076;3.706;2022-10-31T16:24:55;38.40;;;21.70;;
32734;SDS011;19112;51.076;3.706;2022-10-31T16:27:33;36.97;;;17.48;;
32734;SDS011;19112;51.076;3.706;2022-10-31T16:30:02;44.47;;;19.75;;
32734;SDS011;19112;51.076;3.706;2022-10-31T16:32:54;35.70;;;17.30;;
32734;SDS011;19112;51.076;3.706;2022-10-31T16:35:36;47.42;;;33.47;;
32734;SDS011;19112;51.076;3.706;2022-10-31T16:38:03;43.72;;;25.02;;
32734;SDS011;19112;51.076;3.706;2022-10-31T16:40:30;35.58;;;15.75;;
32734;SDS011;19112;51.076;3.706;2022-10-31T16:42:58;35.13;;;17.13;;
32734;SDS011;19112;51.076;3.706;2022-10-31T16:45:26;34.95;;;18.10;;
32734;SDS011;19112;51.076;3.706;2022-10-31T16:48:03;40.67;;;20.60;;
32734;SDS011;19112;51.076;3.706;2022-10-31T16:50:39;33.53;;;17.15;;
32734;SDS011;19112;51.076;3.706;2022-10-31T16:53:06;35.60;;;14.15;;
32734;SDS011;19112;51.076;3.706;2022-10-31T16:55:31;42.45;;;23.88;;
32734;SDS011;19112;51.076;3.706;2022-10-31T16:58:01;37.60;;;17.50;;
32734;SDS011;19112;51.076;3.706;2022-10-31T17:00:27;38.10;;;16.35;;
32734;SDS011;19112;51.076;3.706;2022-10-31T17:02:54;33.30;;;17.42;;
32734;SDS011;19112;51.076;3.706;2022-10-31T17:05:24;40.10;;;18.08;;
32734;SDS011;19112;51.076;3.706;2022-10-31T17:07:54;41.33;;;22.30;;
32734;SDS011;19112;51.076;3.706;2022-10-31T17:10:21;34.85;;;14.20;;
32734;SDS011;19112;51.076;3.706;2022-10-31T17:12:47;32.47;;;15.13;;
32734;SDS011;19112;51.076;3.706;2022-10-31T17:15:21;35.55;;;14.15;;
32734;SDS011;19112;51.076;3.706;2022-10-31T17:17:49;28.75;;;13.07;;
32734;SDS011;19112;51.076;3.706;2022-10-31T17:22:53;33.83;;;13.38;;
32734;SDS011;19112;51.076;3.706;2022-10-31T17:25:21;31.00;;;13.27;;
32734;SDS011;19112;51.076;3.706;2022-10-31T17:27:52;31.27;;;13.83;;
32734;SDS011;19112;51.076;3.706;2022-10-31T17:30:18;32.42;;;14.48;;
32734;SDS011;19112;51.076;3.706;2022-10-31T17:32:46;31.52;;;13.07;;
32734;SDS011;19112;51.076;3.706;2022-10-31T17:35:13;33.13;;;12.85;;
32734;SDS011;19112;51.076;3.706;2022-10-31T17:37:41;38.42;;;13.77;;
32734;SDS011;19112;51.076;3.706;2022-10-31T17:40:12;28.65;;;12.32;;
32734;SDS011;19112;51.076;3.706;2022-10-31T17:42:41;29.77;;;12.43;;
32734;SDS011;19112;51.076;3.706;2022-10-31T17:45:12;30.23;;;13.52;;
32734;SDS011;19112;51.076;3.706;2022-10-31T17:47:38;44.72;;;14.55;;
32734;SDS011;19112;51.076;3.706;2022-10-31T17:50:04;34.90;;;13.90;;